Orbital elements of SL-12 R/B(2)
| Launched | 19 October 1982 |
| Flight ended | – |
| Launch site | Tyuratam Missile and Space Center, Kazakhstan (Also known as Baikonur Cosmodrome) |
| Owner | Commonwealth of Independent States (former USSR) |
| NORAD ID | 13630 |
| Date fetched |
Epoch osculation |
Inc. [°] |
Ecc. | RA asc node [hr] |
Arg Peri. [°] |
Mean anom [°] |
Mean motion [rev/day] |
Abs. mag |
| Date fetched |
Epoch osculation |
Inc. [°] |
Ecc. | RA asc node [hr] |
Arg Peri. [°] |
Mean anom [°] |
Mean motion [rev/day] |
Abs. mag |
| 2026 May 05 17:57 | 2026 May 05 08:43:54 | 7.3923 | 0.00110 | 20.1399 | 190.1265 | 5.5426 | 1.00334 | – |
| 2026 May 04 17:57 | 2026 Apr 30 08:56:25 | 7.4035 | 0.00110 | 20.1420 | 189.9415 | 5.5426 | 1.00334 | – |
| 2026 May 03 17:57 | 2026 Apr 30 08:56:25 | 7.4035 | 0.00110 | 20.1420 | 189.9415 | 5.5426 | 1.00334 | – |
| 2026 May 02 17:57 | 2026 Apr 30 08:56:25 | 7.4035 | 0.00110 | 20.1420 | 189.9415 | 5.5426 | 1.00334 | – |
| 2026 May 01 17:56 | 2026 Apr 30 08:56:25 | 7.4035 | 0.00110 | 20.1420 | 189.9415 | 5.5426 | 1.00334 | – |
| 2026 Apr 30 17:56 | 2026 Apr 30 08:56:25 | 7.4035 | 0.00110 | 20.1420 | 189.9415 | 5.5426 | 1.00334 | – |
| 2026 Apr 29 17:57 | 2026 Apr 24 08:30:51 | 7.4167 | 0.00110 | 20.1446 | 189.5588 | 5.5426 | 1.00334 | – |
| 2026 Apr 28 17:56 | 2026 Apr 24 08:30:51 | 7.4167 | 0.00110 | 20.1446 | 189.5588 | 5.5426 | 1.00334 | – |
| 2026 Apr 27 17:58 | 2026 Apr 24 08:30:51 | 7.4167 | 0.00110 | 20.1446 | 189.5588 | 5.5426 | 1.00334 | – |
| 2026 Apr 26 17:58 | 2026 Apr 24 08:30:51 | 7.4167 | 0.00110 | 20.1446 | 189.5588 | 5.5426 | 1.00334 | – |
| 2026 Apr 25 17:58 | 2026 Apr 24 08:30:51 | 7.4167 | 0.00110 | 20.1446 | 189.5588 | 5.5426 | 1.00334 | – |
| 2026 Apr 24 17:59 | 2026 Apr 24 08:30:51 | 7.4167 | 0.00110 | 20.1446 | 189.5588 | 5.5426 | 1.00334 | – |
| 2026 Apr 23 17:57 | 2026 Apr 19 09:23:53 | 7.4274 | 0.00109 | 20.1469 | 189.4169 | 5.5426 | 1.00334 | – |
| 2026 Apr 22 17:57 | 2026 Apr 19 09:23:53 | 7.4274 | 0.00109 | 20.1469 | 189.4169 | 5.5426 | 1.00334 | – |
| 2026 Apr 21 17:57 | 2026 Apr 19 09:23:53 | 7.4274 | 0.00109 | 20.1469 | 189.4169 | 5.5426 | 1.00334 | – |
| 2026 Apr 20 17:57 | 2026 Apr 19 09:23:53 | 7.4274 | 0.00109 | 20.1469 | 189.4169 | 5.5426 | 1.00334 | – |
| 2026 Apr 19 17:58 | 2026 Apr 19 09:23:53 | 7.4274 | 0.00109 | 20.1469 | 189.4169 | 5.5426 | 1.00334 | – |
| 2026 Apr 18 17:56 | 2026 Apr 12 23:22:42 | 7.4413 | 0.00107 | 20.1498 | 189.6103 | 5.5426 | 1.00334 | – |
| 2026 Apr 16 17:57 | 2026 Apr 12 23:22:42 | 7.4413 | 0.00107 | 20.1498 | 189.6103 | 5.5426 | 1.00334 | – |
| 2026 Apr 14 17:57 | 2026 Apr 12 23:22:42 | 7.4413 | 0.00107 | 20.1498 | 189.6103 | 5.5426 | 1.00334 | – |
| 2026 Apr 13 17:57 | 2026 Apr 12 23:22:42 | 7.4413 | 0.00107 | 20.1498 | 189.6103 | 5.5426 | 1.00334 | – |
| 2026 Apr 12 17:57 | 2026 Apr 08 11:33:46 | 7.4511 | 0.00107 | 20.1517 | 189.8208 | 5.5426 | 1.00334 | – |
| 2026 Apr 11 17:57 | 2026 Apr 08 11:33:46 | 7.4511 | 0.00107 | 20.1517 | 189.8208 | 5.5426 | 1.00334 | – |
| 2026 Apr 10 17:58 | 2026 Apr 08 11:33:46 | 7.4511 | 0.00107 | 20.1517 | 189.8208 | 5.5426 | 1.00334 | – |
| 2026 Apr 09 18:01 | 2026 Apr 08 11:33:46 | 7.4511 | 0.00107 | 20.1517 | 189.8208 | 5.5426 | 1.00334 | – |
| 2026 Apr 08 17:57 | 2026 Apr 08 11:33:46 | 7.4511 | 0.00107 | 20.1517 | 189.8208 | 5.5426 | 1.00334 | – |